| time (UTC) | temp F | wind direction | speed knots | gust knots | rain 1hr in | rain 24hr in | rain mn in | humidity % | barometer mb |
| 20260510103052 | 62 | 71 | 5.2 | 11.3 | 0.07 | 0.13 | 0.07 | 90 | 1012.7 |
| 20260510101555 | 62 | 36 | 7.0 | 12.2 | 0.04 | 0.09 | 0.04 | 88 | 1012.7 |
| 20260510100045 | 64 | 98 | 6.1 | 11.3 | 0.02 | 0.07 | 0.02 | 83 | 1012.5 |
| 20260510094549 | 64 | 39 | 3.5 | 7.0 | 0.00 | 0.06 | 0.00 | 81 | 1012.3 |
| 20260510093046 | 64 | 38 | 5.2 | 12.2 | 0.00 | 0.06 | 0.00 | 81 | 1012.2 |
| 20260510091544 | 64 | 47 | 7.0 | 13.0 | 0.00 | 0.06 | 0.00 | 81 | 1012.2 |
| 20260510090041 | 64 | 33 | 7.0 | 12.2 | 0.00 | 0.06 | 0.00 | 80 | 1012.0 |
| 20260510084541 | 65 | 59 | 4.3 | 12.2 | 0.00 | 0.06 | 0.00 | 79 | 1011.8 |
| 20260510083040 | 65 | 65 | 8.7 | 15.6 | 0.00 | 0.06 | 0.00 | 78 | 1011.8 |
| 20260510081538 | 65 | 64 | 6.1 | 14.8 | 0.00 | 0.06 | 0.00 | 79 | 1011.7 |
| 20260510080041 | 65 | 63 | 6.1 | 13.9 | 0.00 | 0.06 | 0.00 | 80 | 1011.6 |
| 20260510074542 | 65 | 65 | 6.1 | 13.0 | 0.00 | 0.06 | 0.00 | 78 | 1011.7 |
| 20260510073040 | 65 | 30 | 7.8 | 21.7 | 0.00 | 0.06 | 0.00 | 77 | 1011.7 |
| 20260510071537 | 66 | 46 | 7.8 | 13.0 | 0.00 | 0.06 | 0.00 | 77 | 1011.6 |
| 20260510070033 | 66 | 49 | 6.1 | 12.2 | 0.00 | 0.06 | 0.00 | 77 | 1011.4 |
| 20260510064544 | 65 | 29 | 6.1 | 13.0 | 0.00 | 0.06 | 0.00 | 79 | 1011.3 |
| 20260510063028 | 65 | 47 | 7.0 | 12.2 | 0.00 | 0.06 | 0.00 | 79 | 1011.3 |
| 20260510061529 | 64 | 43 | 5.2 | 18.2 | 0.00 | 0.06 | 0.00 | 81 | 1011.1 |
| 20260510060022 | 64 | 55 | 6.1 | 15.6 | 0.00 | 0.06 | 0.00 | 81 | 1011.1 |
| 20260510054520 | 63 | 67 | 10.4 | 20.0 | 0.00 | 0.06 | 0.00 | 81 | 1010.9 |
| 20260510053035 | 63 | 62 | 9.6 | 24.3 | 0.00 | 0.06 | 0.00 | 81 | 1010.6 |
| 20260510051515 | 64 | 46 | 10.4 | 17.4 | 0.00 | 0.06 | 0.00 | 81 | 1010.5 |
| 20260510050036 | 64 | 59 | 11.3 | 20.0 | 0.00 | 0.06 | 0.00 | 80 | 1010.4 |
| 20260510044534 | 63 | 67 | 10.4 | 18.2 | 0.00 | 0.06 | 0.00 | 80 | 1010.5 |
| 20260510043029 | 63 | 15 | 10.4 | 24.3 | 0.00 | 0.06 | 0.00 | 79 | 1010.3 |
| 20260510041528 | 64 | 45 | 8.7 | 18.2 | 0.00 | 0.06 | 0.00 | 78 | 1010.5 |
| 20260510040028 | 64 | 49 | 9.6 | 18.2 | 0.00 | 0.06 | 0.00 | 76 | 1010.6 |
| 20260510034521 | 64 | 34 | 9.6 | 15.6 | 0.00 | 0.06 | 0.00 | 75 | 1010.6 |
| 20260510033020 | 64 | 45 | 7.8 | 14.8 | 0.00 | 0.06 | 0.00 | 75 | 1010.8 |
| 20260510031524 | 64 | 28 | 7.8 | 14.8 | 0.00 | 0.06 | 0.00 | 74 | 1010.7 |
| 20260510030016 | 64 | 41 | 7.8 | 14.8 | 0.00 | 0.06 | 0.00 | 74 | 1010.8 |
| 20260510024515 | 64 | 63 | 5.2 | 13.9 | 0.00 | 0.06 | 0.00 | 74 | 1010.9 |
| 20260510023014 | 63 | 62 | 9.6 | 15.6 | 0.00 | 0.06 | 0.00 | 74 | 1011.0 |
| 20260510021511 | 63 | 39 | 3.5 | 10.4 | 0.00 | 0.06 | 0.00 | 74 | 1011.0 |
| 20260510020011 | 63 | 42 | 2.6 | 8.7 | 0.00 | 0.06 | 0.00 | 74 | 1011.2 |
| 20260510014513 | 64 | 340 | 0.9 | 7.0 | 0.00 | 0.06 | 0.00 | 73 | 1011.3 |
| 20260510013009 | 63 | 9 | 1.7 | 9.6 | 0.00 | 0.06 | 0.00 | 73 | 1011.4 |
| 20260510011507 | 63 | 19 | 3.5 | 7.8 | 0.00 | 0.06 | 0.00 | 75 | 1011.5 |
| 20260510010006 | 63 | 44 | 1.7 | 13.0 | 0.00 | 0.06 | 0.00 | 76 | 1011.3 |
| 20260510004505 | 63 | 51 | 4.3 | 10.4 | 0.00 | 0.06 | 0.00 | 77 | 1011.2 |
| 20260510003004 | 63 | 49 | 4.3 | 12.2 | 0.00 | 0.06 | 0.00 | 77 | 1011.1 |
| 20260510001601 | 62 | 53 | 5.2 | 13.0 | 0.00 | 0.06 | 0.00 | 78 | 1011.2 |
| 20260510000125 | 62 | 44 | 6.1 | 13.0 | 0.00 | 0.06 | 0.00 | 79 | 1011.5 |
| 20260509234555 | 62 | 5 | 2.6 | 7.0 | 0.00 | 0.06 | 0.00 | 80 | 1011.5 |
| 20260509233053 | 62 | 46 | 3.5 | 10.4 | 0.00 | 0.06 | 0.00 | 79 | 1011.9 |
| 20260509231553 | 62 | 20 | 1.7 | 4.3 | 0.00 | 0.06 | 0.00 | 80 | 1012.3 |
| 20260509230057 | 62 | 60 | 3.5 | 5.2 | 0.00 | 0.06 | 0.00 | 80 | 1012.3 |
| 20260509224549 | 62 | 98 | 1.7 | 5.2 | 0.00 | 0.06 | 0.00 | 81 | 1012.0 |
| 20260509223048 | 62 | 45 | 3.5 | 9.6 | 0.00 | 0.06 | 0.00 | 82 | 1011.8 |
| 20260509221551 | 62 | 5 | 4.3 | 8.7 | 0.01 | 0.06 | 0.00 | 81 | 1012.1 |
| 20260509220045 | 61 | 87 | 5.2 | 11.3 | 0.01 | 0.06 | 0.00 | 83 | 1011.7 |
| 20260509214553 | 61 | 75 | 6.1 | 10.4 | 0.02 | 0.06 | 0.06 | 85 | 1011.6 |
| 20260509213038 | 61 | 38 | 3.5 | 8.7 | 0.04 | 0.06 | 0.06 | 84 | 1012.0 |
| 20260509211536 | 61 | 34 | 3.5 | 9.6 | 0.05 | 0.05 | 0.05 | 83 | 1012.6 |
| 20260509210044 | 61 | 61 | 4.3 | 12.2 | 0.05 | 0.05 | 0.05 | 84 | 1012.7 |
| 20260509204537 | 62 | 57 | 7.0 | 13.0 | 0.04 | 0.04 | 0.04 | 83 | 1012.3 |
| 20260509203038 | 64 | 55 | 12.2 | 19.1 | 0.02 | 0.02 | 0.02 | 77 | 1012.6 |
| 20260509201532 | 66 | 63 | 9.6 | 15.6 | 0.00 | 0.00 | 0.00 | 69 | 1013.1 |
| 20260509200038 | 66 | 47 | 7.0 | 14.8 | 0.00 | 0.00 | 0.00 | 67 | 1012.7 |
| 20260509194545 | 66 | 39 | 3.5 | 11.3 | 0.00 | 0.00 | 0.00 | 68 | 1012.6 |
| 20260509193037 | 66 | 28 | 7.0 | 13.0 | 0.00 | 0.00 | 0.00 | 68 | 1012.3 |
| 20260509191533 | 66 | 32 | 7.0 | 13.0 | 0.00 | 0.00 | 0.00 | 68 | 1012.1 |
| 20260509190031 | 66 | 34 | 5.2 | 14.8 | 0.00 | 0.00 | 0.00 | 67 | 1012.1 |
| 20260509184532 | 66 | 15 | 5.2 | 10.4 | 0.00 | 0.00 | 0.00 | 66 | 1012.2 |
| 20260509183034 | 66 | 65 | 6.1 | 13.9 | 0.00 | 0.00 | 0.00 | 65 | 1012.1 |
| 20260509181528 | 67 | 339 | 5.2 | 10.4 | 0.00 | 0.00 | 0.00 | 65 | 1012.3 |
| 20260509180026 | 67 | 80 | 6.1 | 12.2 | 0.00 | 0.00 | 0.00 | 64 | 1012.5 |
| 20260509174540 | 67 | 29 | 7.0 | 14.8 | 0.00 | 0.00 | 0.00 | 61 | 1012.1 |
| 20260509173026 | 67 | 38 | 7.0 | 13.0 | 0.00 | 0.00 | 0.00 | 61 | 1012.1 |
| 20260509171534 | 68 | 55 | 6.1 | 11.3 | 0.00 | 0.00 | 0.00 | 61 | 1012.5 |
| 20260509170024 | 68 | 80 | 7.0 | 12.2 | 0.00 | 0.00 | 0.00 | 61 | 1012.6 |
| 20260509164524 | 68 | 63 | 8.7 | 15.6 | 0.00 | 0.00 | 0.00 | 60 | 1012.1 |
| 20260509163035 | 68 | 33 | 3.5 | 13.9 | 0.00 | 0.00 | 0.00 | 61 | 1012.2 |
| 20260509161528 | 69 | 30 | 8.7 | 18.2 | 0.00 | 0.00 | 0.00 | 61 | 1012.0 |
| 20260509160024 | 69 | 39 | 11.3 | 19.1 | 0.00 | 0.00 | 0.00 | 60 | 1011.9 |
| 20260509154519 | 70 | 22 | 6.1 | 15.6 | 0.00 | 0.00 | 0.00 | 61 | 1012.2 |
| 20260509153032 | 71 | 61 | 5.2 | 10.4 | 0.00 | 0.00 | 0.00 | 62 | 1012.5 |
| 20260509151516 | 72 | 15 | 5.2 | 11.3 | 0.00 | 0.00 | 0.00 | 61 | 1012.7 |
| 20260509150023 | 72 | 24 | 3.5 | 12.2 | 0.00 | 0.00 | 0.00 | 61 | 1012.9 |
| 20260509144511 | 72 | 16 | 5.2 | 13.0 | 0.00 | 0.00 | 0.00 | 60 | 1013.0 |
| 20260509143010 | 72 | 45 | 3.5 | 10.4 | 0.00 | 0.00 | 0.00 | 58 | 1013.3 |
| 20260509141506 | 72 | 21 | 4.3 | 11.3 | 0.00 | 0.00 | 0.00 | 57 | 1013.5 |
| 20260509140004 | 71 | 87 | 5.2 | 14.8 | 0.00 | 0.00 | 0.00 | 59 | 1013.8 |
| 20260509134500 | 70 | 65 | 9.6 | 14.8 | 0.00 | 0.00 | 0.00 | 58 | 1014.1 |
| 20260509133059 | 70 | 89 | 9.6 | 19.1 | 0.00 | 0.00 | 0.00 | 59 | 1014.3 |
| 20260509131558 | 70 | 71 | 8.7 | 16.5 | 0.00 | 0.00 | 0.00 | 58 | 1014.4 |
| 20260509130056 | 70 | 52 | 8.7 | 17.4 | 0.00 | 0.00 | 0.00 | 56 | 1014.6 |
| 20260509124554 | 70 | 59 | 12.2 | 18.2 | 0.00 | 0.00 | 0.00 | 53 | 1014.7 |
| 20260509123114 | 71 | 91 | 9.6 | 20.0 | 0.00 | 0.00 | 0.00 | 53 | 1014.7 |
| 20260509121558 | 71 | 64 | 9.6 | 18.2 | 0.00 | 0.00 | 0.00 | 53 | 1015.1 |
| 20260509120049 | 71 | 47 | 9.6 | 19.1 | 0.00 | 0.00 | 0.00 | 52 | 1015.2 |
| 20260509114547 | 71 | 46 | 11.3 | 21.7 | 0.00 | 0.00 | 0.00 | 52 | 1015.3 |
| 20260509113045 | 71 | 80 | 11.3 | 17.4 | 0.00 | 0.00 | 0.00 | 52 | 1015.6 |
| 20260509111543 | 70 | 45 | 13.0 | 17.4 | 0.00 | 0.00 | 0.00 | 55 | 1015.6 |
| 20260509110042 | 71 | 44 | 9.6 | 15.6 | 0.00 | 0.00 | 0.00 | 54 | 1015.7 |
| 20260509104542 | 70 | 57 | 12.2 | 21.7 | 0.00 | 0.00 | 0.00 | 52 | 1015.9 |